sensor_id;sensor_type;location;lat;lon;timestamp;P1;durP1;ratioP1;P2;durP2;ratioP2
43413;SDS011;73638;49.676;8.606;2024-03-06T00:02:57;1.1305;;;1.1607;;
43413;SDS011;73638;49.676;8.606;2024-03-06T00:08:04;0.7676;;;1.3454;;
43413;SDS011;73638;49.676;8.606;2024-03-06T00:13:10;1.008;;;1.1426;;
43413;SDS011;73638;49.676;8.606;2024-03-06T00:18:16;0.9612;;;1.6381;;
43413;SDS011;73638;49.676;8.606;2024-03-06T00:23:23;1.2951;;;2.3303;;
43413;SDS011;73638;49.676;8.606;2024-03-06T00:28:30;1.0736;;;4.0029;;
43413;SDS011;73638;49.676;8.606;2024-03-06T00:33:36;1.8114;;;2.3845;;
43413;SDS011;73638;49.676;8.606;2024-03-06T00:38:43;1.0331;;;1.226;;
43413;SDS011;73638;49.676;8.606;2024-03-06T00:43:50;1.1564;;;1.1945;;
43413;SDS011;73638;49.676;8.606;2024-03-06T00:48:57;1.5203;;;2.0104;;
43413;SDS011;73638;49.676;8.606;2024-03-06T00:54:03;0.8265;;;2.1439;;
43413;SDS011;73638;49.676;8.606;2024-03-06T00:59:13;0.7546;;;0.8112;;
43413;SDS011;73638;49.676;8.606;2024-03-06T01:04:19;1.2122;;;1.4871;;
43413;SDS011;73638;49.676;8.606;2024-03-06T01:09:25;1.0042;;;2.6236;;
43413;SDS011;73638;49.676;8.606;2024-03-06T01:14:32;1.1983;;;1.5269;;
43413;SDS011;73638;49.676;8.606;2024-03-06T01:19:39;1.5872;;;3.5424;;
43413;SDS011;73638;49.676;8.606;2024-03-06T01:24:45;1.0187;;;1.2712;;
43413;SDS011;73638;49.676;8.606;2024-03-06T01:29:52;0.3686;;;0.3391;;
43413;SDS011;73638;49.676;8.606;2024-03-06T01:34:59;0.6197;;;0.9242;;
43413;SDS011;73638;49.676;8.606;2024-03-06T01:40:06;0.8388;;;1.1743;;
43413;SDS011;73638;49.676;8.606;2024-03-06T01:45:12;0.5167;;;0.4937;;
43413;SDS011;73638;49.676;8.606;2024-03-06T01:50:19;0.7613;;;1.0868;;
43413;SDS011;73638;49.676;8.606;2024-03-06T01:55:25;0.9502;;;1.7798;;
43413;SDS011;73638;49.676;8.606;2024-03-06T02:00:32;0.7352;;;0.6968;;
43413;SDS011;73638;49.676;8.606;2024-03-06T02:05:38;0.9608;;;0.9845;;
43413;SDS011;73638;49.676;8.606;2024-03-06T02:10:45;1.1033;;;1.353;;
43413;SDS011;73638;49.676;8.606;2024-03-06T02:15:52;0.8646;;;0.8978;;
43413;SDS011;73638;49.676;8.606;2024-03-06T02:20:58;1.2449;;;1.7408;;
43413;SDS011;73638;49.676;8.606;2024-03-06T02:26:05;0.8708;;;0.8254;;
43413;SDS011;73638;49.676;8.606;2024-03-06T02:31:11;0.7163;;;0.6583;;
43413;SDS011;73638;49.676;8.606;2024-03-06T02:36:18;0.7872;;;1.2104;;
43413;SDS011;73638;49.676;8.606;2024-03-06T02:41:24;0.8479;;;1.4561;;
43413;SDS011;73638;49.676;8.606;2024-03-06T02:46:31;1.1094;;;1.5346;;
43413;SDS011;73638;49.676;8.606;2024-03-06T02:51:38;0.8839;;;1.1338;;
43413;SDS011;73638;49.676;8.606;2024-03-06T02:56:44;0.6589;;;0.9738;;
43413;SDS011;73638;49.676;8.606;2024-03-06T03:01:51;1.2466;;;1.6723;;
43413;SDS011;73638;49.676;8.606;2024-03-06T03:06:57;1.0724;;;1.7966;;
43413;SDS011;73638;49.676;8.606;2024-03-06T03:12:04;0.4646;;;0.4255;;
43413;SDS011;73638;49.676;8.606;2024-03-06T03:17:11;1.8426;;;2.519;;
43413;SDS011;73638;49.676;8.606;2024-03-06T03:22:17;1.1692;;;1.7537;;
43413;SDS011;73638;49.676;8.606;2024-03-06T03:27:24;0.2758;;;0.2528;;
43413;SDS011;73638;49.676;8.606;2024-03-06T03:32:30;0.9564;;;1.4751;;
43413;SDS011;73638;49.676;8.606;2024-03-06T03:37:36;1.2962;;;1.6042;;
43413;SDS011;73638;49.676;8.606;2024-03-06T03:42:43;0.8971;;;0.86;;
43413;SDS011;73638;49.676;8.606;2024-03-06T03:47:50;0.82;;;0.9019;;
43413;SDS011;73638;49.676;8.606;2024-03-06T03:52:57;1.1553;;;1.1213;;
43413;SDS011;73638;49.676;8.606;2024-03-06T03:58:03;1.3742;;;1.3394;;
43413;SDS011;73638;49.676;8.606;2024-03-06T04:03:10;0.5921;;;0.5421;;
43413;SDS011;73638;49.676;8.606;2024-03-06T04:08:17;1.3743;;;1.6959;;
43413;SDS011;73638;49.676;8.606;2024-03-06T04:13:23;0.7835;;;0.7211;;
43413;SDS011;73638;49.676;8.606;2024-03-06T04:18:30;1.6175;;;3.4599;;
43413;SDS011;73638;49.676;8.606;2024-03-06T04:23:36;1.2297;;;1.8971;;
43413;SDS011;73638;49.676;8.606;2024-03-06T04:28:43;1.2259;;;2.537;;
43413;SDS011;73638;49.676;8.606;2024-03-06T04:33:49;0.9849;;;1.4391;;
43413;SDS011;73638;49.676;8.606;2024-03-06T04:38:56;0.8974;;;1.2393;;
43413;SDS011;73638;49.676;8.606;2024-03-06T04:44:03;1.102;;;1.2945;;
43413;SDS011;73638;49.676;8.606;2024-03-06T04:49:09;1.0122;;;1.3092;;
43413;SDS011;73638;49.676;8.606;2024-03-06T04:54:16;0.7361;;;0.9474;;
43413;SDS011;73638;49.676;8.606;2024-03-06T04:59:23;0.7615;;;1.0641;;
43413;SDS011;73638;49.676;8.606;2024-03-06T06:00:42;0.5812;;;0.862;;
43413;SDS011;73638;49.676;8.606;2024-03-06T06:05:48;0.9428;;;1.159;;
43413;SDS011;73638;49.676;8.606;2024-03-06T06:10:55;1.2102;;;1.1976;;
43413;SDS011;73638;49.676;8.606;2024-03-06T06:16:02;1.3766;;;1.3549;;
43413;SDS011;73638;49.676;8.606;2024-03-06T06:21:09;0.8098;;;0.9493;;
43413;SDS011;73638;49.676;8.606;2024-03-06T06:26:15;1.6912;;;3.3716;;
43413;SDS011;73638;49.676;8.606;2024-03-06T06:31:22;0.9535;;;1.2428;;
43413;SDS011;73638;49.676;8.606;2024-03-06T06:36:28;1.4189;;;1.5234;;
43413;SDS011;73638;49.676;8.606;2024-03-06T06:41:35;1.2508;;;1.9989;;
43413;SDS011;73638;49.676;8.606;2024-03-06T06:46:42;1.247;;;1.2417;;
43413;SDS011;73638;49.676;8.606;2024-03-06T06:51:48;1.2387;;;1.2756;;
43413;SDS011;73638;49.676;8.606;2024-03-06T06:56:55;1.238;;;3.351;;
43413;SDS011;73638;49.676;8.606;2024-03-06T07:02:02;1.5661;;;2.4235;;
43413;SDS011;73638;49.676;8.606;2024-03-06T07:07:08;1.355;;;1.4693;;
43413;SDS011;73638;49.676;8.606;2024-03-06T07:12:15;1.0948;;;1.2269;;
43413;SDS011;73638;49.676;8.606;2024-03-06T07:17:22;1.4892;;;1.8676;;
43413;SDS011;73638;49.676;8.606;2024-03-06T07:22:29;1.9256;;;2.8282;;
43413;SDS011;73638;49.676;8.606;2024-03-06T07:27:36;0.9832;;;1.5787;;
43413;SDS011;73638;49.676;8.606;2024-03-06T07:32:42;1.445;;;2.0298;;
43413;SDS011;73638;49.676;8.606;2024-03-06T07:37:49;1.9792;;;2.7143;;
43413;SDS011;73638;49.676;8.606;2024-03-06T07:42:56;1.8113;;;2.9612;;
43413;SDS011;73638;49.676;8.606;2024-03-06T07:48:03;2.1676;;;2.3756;;
43413;SDS011;73638;49.676;8.606;2024-03-06T07:53:09;1.9732;;;2.7351;;
43413;SDS011;73638;49.676;8.606;2024-03-06T07:58:16;0.9313;;;2.0482;;
43413;SDS011;73638;49.676;8.606;2024-03-06T08:03:23;1.3492;;;2.6032;;
43413;SDS011;73638;49.676;8.606;2024-03-06T08:08:30;1.0669;;;1.7032;;
43413;SDS011;73638;49.676;8.606;2024-03-06T08:13:37;0.8981;;;0.9635;;
43413;SDS011;73638;49.676;8.606;2024-03-06T08:18:43;1.3515;;;1.9909;;
43413;SDS011;73638;49.676;8.606;2024-03-06T08:23:51;1.6312;;;2.8674;;
43413;SDS011;73638;49.676;8.606;2024-03-06T08:28:57;1.6305;;;2.551;;
43413;SDS011;73638;49.676;8.606;2024-03-06T08:34:04;1.1555;;;2.2077;;
43413;SDS011;73638;49.676;8.606;2024-03-06T08:39:10;1.4126;;;1.4116;;
43413;SDS011;73638;49.676;8.606;2024-03-06T08:44:17;1.4178;;;3.2746;;
43413;SDS011;73638;49.676;8.606;2024-03-06T08:49:24;1.8471;;;4.425;;
43413;SDS011;73638;49.676;8.606;2024-03-06T08:54:31;1.1471;;;1.5838;;
43413;SDS011;73638;49.676;8.606;2024-03-06T08:59:37;1.4837;;;2.4767;;
43413;SDS011;73638;49.676;8.606;2024-03-06T09:04:44;1.8905;;;2.4667;;
43413;SDS011;73638;49.676;8.606;2024-03-06T09:09:51;1.2155;;;2.2982;;
43413;SDS011;73638;49.676;8.606;2024-03-06T09:14:57;1.6572;;;3.6597;;
43413;SDS011;73638;49.676;8.606;2024-03-06T09:20:10;0.9578;;;0.9713;;
43413;SDS011;73638;49.676;8.606;2024-03-06T09:25:11;2.5396;;;5.0775;;
43413;SDS011;73638;49.676;8.606;2024-03-06T09:30:18;1.3155;;;1.8904;;
43413;SDS011;73638;49.676;8.606;2024-03-06T09:35:25;1.1105;;;2.042;;
43413;SDS011;73638;49.676;8.606;2024-03-06T09:40:32;1.8524;;;2.9466;;
43413;SDS011;73638;49.676;8.606;2024-03-06T09:45:39;1.3448;;;1.8425;;
43413;SDS011;73638;49.676;8.606;2024-03-06T09:50:45;1.7084;;;3.0825;;
43413;SDS011;73638;49.676;8.606;2024-03-06T09:55:52;1.7024;;;3.2816;;
43413;SDS011;73638;49.676;8.606;2024-03-06T10:00:59;1.9766;;;3.791;;
43413;SDS011;73638;49.676;8.606;2024-03-06T10:06:10;2.0926;;;2.9026;;
43413;SDS011;73638;49.676;8.606;2024-03-06T10:11:13;1.679;;;3.146;;
43413;SDS011;73638;49.676;8.606;2024-03-06T10:16:20;2.6783;;;3.3734;;
43413;SDS011;73638;49.676;8.606;2024-03-06T10:21:30;2.387;;;3.1842;;
43413;SDS011;73638;49.676;8.606;2024-03-06T10:26:33;2.0296;;;4.2029;;
43413;SDS011;73638;49.676;8.606;2024-03-06T10:31:40;2.2505;;;3.8466;;
43413;SDS011;73638;49.676;8.606;2024-03-06T10:36:48;2.4833;;;5.3288;;
43413;SDS011;73638;49.676;8.606;2024-03-06T10:41:55;2.3129;;;3.706;;
43413;SDS011;73638;49.676;8.606;2024-03-06T10:47:02;2.0378;;;4.2177;;
43413;SDS011;73638;49.676;8.606;2024-03-06T10:52:08;2.8979;;;6.7393;;
43413;SDS011;73638;49.676;8.606;2024-03-06T10:57:15;3.0503;;;5.8926;;
43413;SDS011;73638;49.676;8.606;2024-03-06T11:02:22;2.0719;;;4.4247;;
43413;SDS011;73638;49.676;8.606;2024-03-06T11:07:29;2.8208;;;5.8221;;
43413;SDS011;73638;49.676;8.606;2024-03-06T11:12:36;2.9733;;;5.2583;;
43413;SDS011;73638;49.676;8.606;2024-03-06T11:17:43;2.1768;;;5.1742;;
43413;SDS011;73638;49.676;8.606;2024-03-06T11:23:07;2.6872;;;4.913;;
43413;SDS011;73638;49.676;8.606;2024-03-06T11:28:04;3.6667;;;6.3024;;
43413;SDS011;73638;49.676;8.606;2024-03-06T11:33:04;3.3666;;;7.7919;;
43413;SDS011;73638;49.676;8.606;2024-03-06T11:38:10;2.9914;;;6.4862;;
43413;SDS011;73638;49.676;8.606;2024-03-06T11:43:25;1.8611;;;3.7529;;
43413;SDS011;73638;49.676;8.606;2024-03-06T11:48:25;2.9359;;;4.702;;
43413;SDS011;73638;49.676;8.606;2024-03-06T11:53:32;2.0003;;;3.2687;;
43413;SDS011;73638;49.676;8.606;2024-03-06T11:58:38;2.6065;;;6.0165;;
43413;SDS011;73638;49.676;8.606;2024-03-06T12:03:45;1.5448;;;3.2129;;
43413;SDS011;73638;49.676;8.606;2024-03-06T12:08:52;1.8285;;;2.4627;;
43413;SDS011;73638;49.676;8.606;2024-03-06T12:13:59;3.0437;;;10.5289;;
43413;SDS011;73638;49.676;8.606;2024-03-06T12:19:06;2.5667;;;5.5458;;
43413;SDS011;73638;49.676;8.606;2024-03-06T12:24:12;2.5779;;;4.683;;
43413;SDS011;73638;49.676;8.606;2024-03-06T12:29:20;2.6978;;;4.4646;;
43413;SDS011;73638;49.676;8.606;2024-03-06T12:34:26;2.844;;;7.0774;;
43413;SDS011;73638;49.676;8.606;2024-03-06T12:39:33;2.697;;;4.6712;;
43413;SDS011;73638;49.676;8.606;2024-03-06T12:44:41;2.46;;;4.5932;;
43413;SDS011;73638;49.676;8.606;2024-03-06T12:49:47;2.8776;;;5.8899;;
43413;SDS011;73638;49.676;8.606;2024-03-06T12:54:53;2.9192;;;6.2307;;
43413;SDS011;73638;49.676;8.606;2024-03-06T13:00:00;3.5782;;;5.8357;;
43413;SDS011;73638;49.676;8.606;2024-03-06T13:05:07;3.1082;;;6.2012;;
43413;SDS011;73638;49.676;8.606;2024-03-06T13:10:15;3.5945;;;6.5835;;
43413;SDS011;73638;49.676;8.606;2024-03-06T13:15:21;1.9833;;;3.2431;;
43413;SDS011;73638;49.676;8.606;2024-03-06T13:20:28;3.3951;;;7.5175;;
43413;SDS011;73638;49.676;8.606;2024-03-06T13:25:35;3.1062;;;6.7096;;
43413;SDS011;73638;49.676;8.606;2024-03-06T13:30:42;3.0156;;;5.7809;;
43413;SDS011;73638;49.676;8.606;2024-03-06T13:35:49;3.1472;;;6.0202;;
43413;SDS011;73638;49.676;8.606;2024-03-06T13:40:56;3.2403;;;6.0302;;
43413;SDS011;73638;49.676;8.606;2024-03-06T13:46:03;2.7328;;;4.6996;;
43413;SDS011;73638;49.676;8.606;2024-03-06T13:51:09;2.262;;;3.8102;;
43413;SDS011;73638;49.676;8.606;2024-03-06T13:56:16;2.1472;;;4.2654;;
43413;SDS011;73638;49.676;8.606;2024-03-06T14:01:23;3.0535;;;5.2075;;
43413;SDS011;73638;49.676;8.606;2024-03-06T14:06:30;3.5244;;;6.7834;;
43413;SDS011;73638;49.676;8.606;2024-03-06T14:11:37;2.6936;;;5.512;;
43413;SDS011;73638;49.676;8.606;2024-03-06T14:16:44;2.9134;;;6.67;;
43413;SDS011;73638;49.676;8.606;2024-03-06T14:21:51;2.9605;;;6.3994;;
43413;SDS011;73638;49.676;8.606;2024-03-06T14:27:00;2.5051;;;6.579;;
43413;SDS011;73638;49.676;8.606;2024-03-06T14:32:07;2.1799;;;3.7026;;
43413;SDS011;73638;49.676;8.606;2024-03-06T14:37:14;2.3942;;;4.7257;;
43413;SDS011;73638;49.676;8.606;2024-03-06T14:42:20;2.2634;;;4.489;;
43413;SDS011;73638;49.676;8.606;2024-03-06T14:47:28;2.4111;;;5.176;;
43413;SDS011;73638;49.676;8.606;2024-03-06T14:52:34;3.4952;;;7.609;;
43413;SDS011;73638;49.676;8.606;2024-03-06T14:57:41;3.3064;;;6.9351;;
43413;SDS011;73638;49.676;8.606;2024-03-06T15:02:48;3.2751;;;5.8211;;
43413;SDS011;73638;49.676;8.606;2024-03-06T15:07:54;2.7616;;;7.4317;;
43413;SDS011;73638;49.676;8.606;2024-03-06T15:13:01;2.5834;;;5.4033;;
43413;SDS011;73638;49.676;8.606;2024-03-06T15:18:08;2.7084;;;6.4951;;
43413;SDS011;73638;49.676;8.606;2024-03-06T15:23:15;2.9702;;;5.914;;
43413;SDS011;73638;49.676;8.606;2024-03-06T15:28:22;3.3781;;;9.3218;;
43413;SDS011;73638;49.676;8.606;2024-03-06T15:33:29;2.2103;;;4.1306;;
43413;SDS011;73638;49.676;8.606;2024-03-06T15:38:36;2.7075;;;5.4278;;
43413;SDS011;73638;49.676;8.606;2024-03-06T15:43:42;2.5764;;;5.0198;;
43413;SDS011;73638;49.676;8.606;2024-03-06T15:48:49;2.9632;;;6.7287;;
43413;SDS011;73638;49.676;8.606;2024-03-06T15:53:57;2.7009;;;5.1466;;
43413;SDS011;73638;49.676;8.606;2024-03-06T15:59:02;3.1194;;;8.1071;;
43413;SDS011;73638;49.676;8.606;2024-03-06T16:04:09;2.423;;;5.0053;;
43413;SDS011;73638;49.676;8.606;2024-03-06T16:09:16;2.8403;;;6.8279;;
43413;SDS011;73638;49.676;8.606;2024-03-06T16:14:24;2.87;;;4.9567;;
43413;SDS011;73638;49.676;8.606;2024-03-06T16:19:38;2.5935;;;6.9329;;
43413;SDS011;73638;49.676;8.606;2024-03-06T16:24:36;2.7765;;;5.3749;;
43413;SDS011;73638;49.676;8.606;2024-03-06T16:29:43;2.9805;;;4.5482;;
43413;SDS011;73638;49.676;8.606;2024-03-06T16:34:51;3.0534;;;6.0282;;
43413;SDS011;73638;49.676;8.606;2024-03-06T16:39:56;2.1546;;;3.7382;;
43413;SDS011;73638;49.676;8.606;2024-03-06T16:45:04;2.6241;;;4.3054;;
43413;SDS011;73638;49.676;8.606;2024-03-06T16:50:10;1.8141;;;3.2196;;
43413;SDS011;73638;49.676;8.606;2024-03-06T16:55:16;2.1175;;;4.0016;;
43413;SDS011;73638;49.676;8.606;2024-03-06T17:00:23;2.5718;;;5.1712;;
43413;SDS011;73638;49.676;8.606;2024-03-06T17:05:30;2.1846;;;4.0253;;
43413;SDS011;73638;49.676;8.606;2024-03-06T17:10:37;2.9418;;;7.8018;;
43413;SDS011;73638;49.676;8.606;2024-03-06T17:15:43;2.9675;;;6.35;;
43413;SDS011;73638;49.676;8.606;2024-03-06T17:20:50;3.3344;;;7.6628;;
43413;SDS011;73638;49.676;8.606;2024-03-06T17:25:57;3.2861;;;5.9977;;
43413;SDS011;73638;49.676;8.606;2024-03-06T17:31:03;2.1838;;;5.2944;;
43413;SDS011;73638;49.676;8.606;2024-03-06T17:36:10;3.3897;;;5.3888;;
43413;SDS011;73638;49.676;8.606;2024-03-06T17:41:17;3.9852;;;12.2792;;
43413;SDS011;73638;49.676;8.606;2024-03-06T17:46:24;2.9973;;;7.4299;;
43413;SDS011;73638;49.676;8.606;2024-03-06T17:51:31;2.9488;;;5.433;;
43413;SDS011;73638;49.676;8.606;2024-03-06T17:56:38;3.4393;;;4.5768;;
43413;SDS011;73638;49.676;8.606;2024-03-06T18:01:44;2.4745;;;4.1813;;
43413;SDS011;73638;49.676;8.606;2024-03-06T18:06:51;3.0629;;;7.0874;;
43413;SDS011;73638;49.676;8.606;2024-03-06T18:11:58;3.304;;;6.9734;;
43413;SDS011;73638;49.676;8.606;2024-03-06T18:17:05;2.7404;;;4.5612;;
43413;SDS011;73638;49.676;8.606;2024-03-06T18:22:12;2.3128;;;5.5511;;
43413;SDS011;73638;49.676;8.606;2024-03-06T18:27:19;2.8809;;;5.6627;;
43413;SDS011;73638;49.676;8.606;2024-03-06T18:32:26;2.6543;;;7.2712;;
43413;SDS011;73638;49.676;8.606;2024-03-06T18:37:32;2.8462;;;7.2159;;
43413;SDS011;73638;49.676;8.606;2024-03-06T18:42:39;3.0011;;;5.9114;;
43413;SDS011;73638;49.676;8.606;2024-03-06T18:47:46;2.5565;;;5.1628;;
43413;SDS011;73638;49.676;8.606;2024-03-06T18:52:53;3.059;;;6.3577;;
43413;SDS011;73638;49.676;8.606;2024-03-06T18:58:00;2.7732;;;5.5855;;
43413;SDS011;73638;49.676;8.606;2024-03-06T19:03:07;3.6436;;;11.4529;;
43413;SDS011;73638;49.676;8.606;2024-03-06T19:08:13;2.5788;;;3.5903;;
43413;SDS011;73638;49.676;8.606;2024-03-06T19:13:20;2.9685;;;4.6507;;
43413;SDS011;73638;49.676;8.606;2024-03-06T19:18:32;2.884;;;6.6196;;
43413;SDS011;73638;49.676;8.606;2024-03-06T19:23:34;2.6311;;;5.7823;;
43413;SDS011;73638;49.676;8.606;2024-03-06T19:28:41;3.4416;;;6.8174;;
43413;SDS011;73638;49.676;8.606;2024-03-06T19:33:47;3.1469;;;5.8393;;
43413;SDS011;73638;49.676;8.606;2024-03-06T19:38:54;3.0826;;;6.2445;;
43413;SDS011;73638;49.676;8.606;2024-03-06T19:44:01;3.6094;;;9.1831;;
43413;SDS011;73638;49.676;8.606;2024-03-06T19:49:08;3.708;;;6.8217;;
43413;SDS011;73638;49.676;8.606;2024-03-06T19:54:15;3.6633;;;7.3702;;
43413;SDS011;73638;49.676;8.606;2024-03-06T19:59:32;3.876;;;9.6324;;
43413;SDS011;73638;49.676;8.606;2024-03-06T20:04:28;4.8928;;;9.212;;
43413;SDS011;73638;49.676;8.606;2024-03-06T20:09:35;5.0745;;;13.1975;;
43413;SDS011;73638;49.676;8.606;2024-03-06T20:14:42;4.0765;;;7.5791;;
43413;SDS011;73638;49.676;8.606;2024-03-06T20:19:48;4.5037;;;9.1803;;
43413;SDS011;73638;49.676;8.606;2024-03-06T20:24:55;4.9431;;;10.7516;;
43413;SDS011;73638;49.676;8.606;2024-03-06T20:30:02;5.0227;;;9.2937;;
43413;SDS011;73638;49.676;8.606;2024-03-06T20:35:10;4.4972;;;11.696;;
43413;SDS011;73638;49.676;8.606;2024-03-06T20:40:16;5.1843;;;11.0785;;
43413;SDS011;73638;49.676;8.606;2024-03-06T20:45:22;4.2446;;;7.8571;;
43413;SDS011;73638;49.676;8.606;2024-03-06T20:50:29;5.2002;;;8.9329;;
43413;SDS011;73638;49.676;8.606;2024-03-06T20:55:35;4.4834;;;8.3276;;
43413;SDS011;73638;49.676;8.606;2024-03-06T21:00:42;3.7285;;;6.5866;;
43413;SDS011;73638;49.676;8.606;2024-03-06T21:05:49;5.0493;;;14.0274;;
43413;SDS011;73638;49.676;8.606;2024-03-06T21:10:56;5.3024;;;10.5238;;
43413;SDS011;73638;49.676;8.606;2024-03-06T21:16:03;5.249;;;10.724;;
43413;SDS011;73638;49.676;8.606;2024-03-06T21:21:09;4.6977;;;11.281;;
43413;SDS011;73638;49.676;8.606;2024-03-06T21:26:16;5.4271;;;9.9648;;
43413;SDS011;73638;49.676;8.606;2024-03-06T21:31:23;4.0637;;;7.5547;;
43413;SDS011;73638;49.676;8.606;2024-03-06T21:36:29;5.7067;;;9.4954;;
43413;SDS011;73638;49.676;8.606;2024-03-06T21:41:36;4.5971;;;7.9479;;
43413;SDS011;73638;49.676;8.606;2024-03-06T21:46:43;5.4381;;;13.5591;;
43413;SDS011;73638;49.676;8.606;2024-03-06T21:51:50;4.7332;;;11.2573;;
43413;SDS011;73638;49.676;8.606;2024-03-06T21:56:57;3.9102;;;7.443;;
43413;SDS011;73638;49.676;8.606;2024-03-06T22:02:04;4.3808;;;12.2253;;
43413;SDS011;73638;49.676;8.606;2024-03-06T22:07:10;4.82;;;8.9218;;
43413;SDS011;73638;49.676;8.606;2024-03-06T22:12:17;4.4444;;;10.2249;;
43413;SDS011;73638;49.676;8.606;2024-03-06T22:17:23;4.3566;;;8.3645;;
43413;SDS011;73638;49.676;8.606;2024-03-06T22:22:30;5.3824;;;12.2931;;
43413;SDS011;73638;49.676;8.606;2024-03-06T22:27:37;5.4191;;;8.6753;;
43413;SDS011;73638;49.676;8.606;2024-03-06T22:32:44;5.3538;;;13.8696;;
43413;SDS011;73638;49.676;8.606;2024-03-06T22:37:50;4.075;;;9.0654;;
43413;SDS011;73638;49.676;8.606;2024-03-06T22:42:57;4.8464;;;13.7506;;
43413;SDS011;73638;49.676;8.606;2024-03-06T22:48:04;4.2121;;;7.0912;;
43413;SDS011;73638;49.676;8.606;2024-03-06T22:53:10;5.3506;;;9.376;;
43413;SDS011;73638;49.676;8.606;2024-03-06T22:58:17;4.6787;;;6.7235;;
43413;SDS011;73638;49.676;8.606;2024-03-06T23:03:24;4.0937;;;8.8188;;
43413;SDS011;73638;49.676;8.606;2024-03-06T23:08:30;5.434;;;9.4759;;
43413;SDS011;73638;49.676;8.606;2024-03-06T23:13:37;5.4718;;;10.1148;;
43413;SDS011;73638;49.676;8.606;2024-03-06T23:18:46;5.0664;;;8.8309;;
43413;SDS011;73638;49.676;8.606;2024-03-06T23:23:52;3.9418;;;9.8187;;
43413;SDS011;73638;49.676;8.606;2024-03-06T23:29:01;4.6562;;;6.0746;;
43413;SDS011;73638;49.676;8.606;2024-03-06T23:34:07;5.81;;;11.2858;;
43413;SDS011;73638;49.676;8.606;2024-03-06T23:39:14;5.118;;;9.5064;;
43413;SDS011;73638;49.676;8.606;2024-03-06T23:44:21;4.6509;;;8.6689;;
43413;SDS011;73638;49.676;8.606;2024-03-06T23:49:28;4.539;;;10.4212;;
43413;SDS011;73638;49.676;8.606;2024-03-06T23:54:34;4.2276;;;8.0972;;
43413;SDS011;73638;49.676;8.606;2024-03-06T23:59:41;4.5302;;;10.4687;;
